FQLC

Lichinga Airport

Lichinga, Mozambique
METAR FQLC 181400Z 08012KT 9999 SCT010 BKN016 FEW020CB BKN070 23/19 Q1018 RMK CB TO ALL/D
Observed Flight Rules
Dec-18 @ 14:00 UTC (14 minutes ago) Marginal Visual Flight Rules
Wind Visibility Clouds
80° at 12 knots 10,000+ meters
  • Scattered at 1,000' AGL
  • Broken at 1,600' AGL
  • Few at 2,000' AGL
  • Broken at 7,000' AGL
Temperatures Readings
Current 23°C / 73°F
Dewpoint 19°C / 66°F
Humidity 78%
Altimeter 30.06" Hg
Pressure 1018 hPa
Elevation 1365
METAR FQLC 181400Z 08012KT 9999 SCT010 BKN016 FEW020CB BKN070 23/19 Q1018 RMK CB TO ALL/D
Observed Flight Rules
Dec-18 @ 14:00 UTC
(14 minutes ago)
MVFR
Wind Visibility
80° at 12 knots 10,000+ meters
Clouds
  • Scattered at 1,000' AGL
  • Broken at 1,600' AGL
  • Few at 2,000' AGL
  • Broken at 7,000' AGL
Temperature Dewpoint
23°C / 73°F 19°C / 66°F
Humidity Altimeter Pressure
78% 30.06" Hg 1018 hPa